sensor_id;sensor_type;location;lat;lon;timestamp;P1;durP1;ratioP1;P2;durP2;ratioP2
37409;SDS011;23275;48.914;12.566;2023-05-18T00:00:19;14.50;;;2.80;;
37409;SDS011;23275;48.914;12.566;2023-05-18T00:02:45;11.90;;;2.83;;
37409;SDS011;23275;48.914;12.566;2023-05-18T00:05:12;9.32;;;2.95;;
37409;SDS011;23275;48.914;12.566;2023-05-18T00:07:37;11.98;;;2.70;;
37409;SDS011;23275;48.914;12.566;2023-05-18T00:10:05;8.63;;;2.20;;
37409;SDS011;23275;48.914;12.566;2023-05-18T00:12:31;6.57;;;2.75;;
37409;SDS011;23275;48.914;12.566;2023-05-18T00:14:56;7.82;;;2.63;;
37409;SDS011;23275;48.914;12.566;2023-05-18T00:17:22;7.45;;;2.50;;
37409;SDS011;23275;48.914;12.566;2023-05-18T00:19:47;7.28;;;2.70;;
37409;SDS011;23275;48.914;12.566;2023-05-18T00:22:14;7.10;;;2.40;;
37409;SDS011;23275;48.914;12.566;2023-05-18T00:24:42;8.80;;;2.72;;
37409;SDS011;23275;48.914;12.566;2023-05-18T00:27:09;7.20;;;2.78;;
37409;SDS011;23275;48.914;12.566;2023-05-18T00:29:35;6.97;;;2.97;;
37409;SDS011;23275;48.914;12.566;2023-05-18T00:32:00;9.23;;;2.45;;
37409;SDS011;23275;48.914;12.566;2023-05-18T00:34:26;8.50;;;2.80;;
37409;SDS011;23275;48.914;12.566;2023-05-18T00:36:52;8.60;;;2.65;;
37409;SDS011;23275;48.914;12.566;2023-05-18T00:39:17;11.75;;;3.00;;
37409;SDS011;23275;48.914;12.566;2023-05-18T00:41:43;11.65;;;2.47;;
37409;SDS011;23275;48.914;12.566;2023-05-18T00:44:09;11.02;;;3.33;;
37409;SDS011;23275;48.914;12.566;2023-05-18T00:46:34;8.10;;;2.65;;
37409;SDS011;23275;48.914;12.566;2023-05-18T00:49:00;9.40;;;2.88;;
37409;SDS011;23275;48.914;12.566;2023-05-18T00:51:26;9.63;;;2.30;;
37409;SDS011;23275;48.914;12.566;2023-05-18T00:53:53;10.23;;;2.53;;
37409;SDS011;23275;48.914;12.566;2023-05-18T00:56:20;7.20;;;2.10;;
37409;SDS011;23275;48.914;12.566;2023-05-18T00:58:53;12.15;;;2.83;;
37409;SDS011;23275;48.914;12.566;2023-05-18T01:01:26;9.30;;;2.75;;
37409;SDS011;23275;48.914;12.566;2023-05-18T01:03:58;9.63;;;2.50;;
37409;SDS011;23275;48.914;12.566;2023-05-18T01:06:26;6.88;;;2.85;;
37409;SDS011;23275;48.914;12.566;2023-05-18T01:08:56;9.52;;;3.13;;
37409;SDS011;23275;48.914;12.566;2023-05-18T01:22:36;8.13;;;2.33;;
37409;SDS011;23275;48.914;12.566;2023-05-18T01:25:26;11.32;;;2.30;;
37409;SDS011;23275;48.914;12.566;2023-05-18T01:27:59;6.07;;;2.15;;
37409;SDS011;23275;48.914;12.566;2023-05-18T01:30:30;11.25;;;2.45;;
37409;SDS011;23275;48.914;12.566;2023-05-18T01:33:07;6.75;;;2.22;;
37409;SDS011;23275;48.914;12.566;2023-05-18T01:35:33;10.27;;;3.20;;
37409;SDS011;23275;48.914;12.566;2023-05-18T01:38:00;9.98;;;2.83;;
37409;SDS011;23275;48.914;12.566;2023-05-18T01:40:26;8.65;;;2.40;;
37409;SDS011;23275;48.914;12.566;2023-05-18T01:42:58;7.15;;;2.88;;
37409;SDS011;23275;48.914;12.566;2023-05-18T01:45:31;9.07;;;2.72;;
37409;SDS011;23275;48.914;12.566;2023-05-18T01:47:57;8.23;;;2.78;;
37409;SDS011;23275;48.914;12.566;2023-05-18T01:50:28;8.82;;;3.35;;
37409;SDS011;23275;48.914;12.566;2023-05-18T01:53:18;7.72;;;3.00;;
37409;SDS011;23275;48.914;12.566;2023-05-18T01:55:49;6.90;;;2.70;;
37409;SDS011;23275;48.914;12.566;2023-05-18T01:58:17;7.88;;;2.80;;
37409;SDS011;23275;48.914;12.566;2023-05-18T02:00:45;6.63;;;2.42;;
37409;SDS011;23275;48.914;12.566;2023-05-18T02:03:11;8.40;;;2.70;;
37409;SDS011;23275;48.914;12.566;2023-05-18T02:05:37;9.77;;;2.63;;
37409;SDS011;23275;48.914;12.566;2023-05-18T02:08:03;6.13;;;2.47;;
37409;SDS011;23275;48.914;12.566;2023-05-18T02:10:29;7.03;;;2.70;;
37409;SDS011;23275;48.914;12.566;2023-05-18T02:12:55;11.07;;;2.95;;
37409;SDS011;23275;48.914;12.566;2023-05-18T02:15:20;9.00;;;2.78;;
37409;SDS011;23275;48.914;12.566;2023-05-18T02:17:46;12.63;;;2.70;;
37409;SDS011;23275;48.914;12.566;2023-05-18T02:20:11;11.57;;;2.90;;
37409;SDS011;23275;48.914;12.566;2023-05-18T02:22:37;10.63;;;2.50;;
37409;SDS011;23275;48.914;12.566;2023-05-18T02:25:03;10.32;;;2.97;;
37409;SDS011;23275;48.914;12.566;2023-05-18T02:27:29;9.88;;;2.90;;
37409;SDS011;23275;48.914;12.566;2023-05-18T02:29:55;11.05;;;3.70;;
37409;SDS011;23275;48.914;12.566;2023-05-18T02:32:21;7.03;;;2.75;;
37409;SDS011;23275;48.914;12.566;2023-05-18T02:34:50;10.40;;;2.85;;
37409;SDS011;23275;48.914;12.566;2023-05-18T02:37:16;14.05;;;5.32;;
37409;SDS011;23275;48.914;12.566;2023-05-18T02:39:42;13.93;;;6.93;;
37409;SDS011;23275;48.914;12.566;2023-05-18T02:42:08;13.55;;;5.55;;
37409;SDS011;23275;48.914;12.566;2023-05-18T02:44:33;18.70;;;7.18;;
37409;SDS011;23275;48.914;12.566;2023-05-18T02:46:59;12.60;;;5.05;;
37409;SDS011;23275;48.914;12.566;2023-05-18T02:49:24;10.95;;;3.92;;
37409;SDS011;23275;48.914;12.566;2023-05-18T02:51:50;9.70;;;4.07;;
37409;SDS011;23275;48.914;12.566;2023-05-18T02:54:15;8.13;;;2.63;;
37409;SDS011;23275;48.914;12.566;2023-05-18T02:56:41;7.65;;;2.65;;
37409;SDS011;23275;48.914;12.566;2023-05-18T02:59:06;9.90;;;2.95;;
37409;SDS011;23275;48.914;12.566;2023-05-18T03:01:32;12.25;;;3.00;;
37409;SDS011;23275;48.914;12.566;2023-05-18T03:04:00;11.90;;;2.78;;
37409;SDS011;23275;48.914;12.566;2023-05-18T03:06:26;12.63;;;2.85;;
37409;SDS011;23275;48.914;12.566;2023-05-18T03:08:54;11.48;;;2.50;;
37409;SDS011;23275;48.914;12.566;2023-05-18T03:11:20;9.32;;;2.35;;
37409;SDS011;23275;48.914;12.566;2023-05-18T03:13:50;9.63;;;2.67;;
37409;SDS011;23275;48.914;12.566;2023-05-18T03:16:16;7.72;;;2.58;;
37409;SDS011;23275;48.914;12.566;2023-05-18T03:18:41;7.88;;;2.42;;
37409;SDS011;23275;48.914;12.566;2023-05-18T03:21:07;9.27;;;2.60;;
37409;SDS011;23275;48.914;12.566;2023-05-18T03:23:32;12.45;;;3.08;;
37409;SDS011;23275;48.914;12.566;2023-05-18T03:25:58;9.73;;;3.00;;
37409;SDS011;23275;48.914;12.566;2023-05-18T03:28:28;10.23;;;3.08;;
37409;SDS011;23275;48.914;12.566;2023-05-18T03:30:54;8.80;;;3.00;;
37409;SDS011;23275;48.914;12.566;2023-05-18T03:33:19;6.50;;;3.05;;
37409;SDS011;23275;48.914;12.566;2023-05-18T03:35:45;6.28;;;2.92;;
37409;SDS011;23275;48.914;12.566;2023-05-18T03:38:11;10.10;;;3.67;;
37409;SDS011;23275;48.914;12.566;2023-05-18T03:40:36;8.02;;;3.30;;
37409;SDS011;23275;48.914;12.566;2023-05-18T03:43:02;12.70;;;4.03;;
37409;SDS011;23275;48.914;12.566;2023-05-18T03:45:28;8.65;;;4.15;;
37409;SDS011;23275;48.914;12.566;2023-05-18T03:47:53;8.25;;;3.33;;
37409;SDS011;23275;48.914;12.566;2023-05-18T03:50:19;7.53;;;3.63;;
37409;SDS011;23275;48.914;12.566;2023-05-18T03:52:45;7.15;;;2.90;;
37409;SDS011;23275;48.914;12.566;2023-05-18T03:55:10;8.73;;;3.42;;
37409;SDS011;23275;48.914;12.566;2023-05-18T03:57:36;7.50;;;3.22;;
37409;SDS011;23275;48.914;12.566;2023-05-18T04:00:03;7.90;;;3.33;;
37409;SDS011;23275;48.914;12.566;2023-05-18T04:02:31;8.45;;;3.72;;
37409;SDS011;23275;48.914;12.566;2023-05-18T04:04:57;6.78;;;3.55;;
37409;SDS011;23275;48.914;12.566;2023-05-18T04:07:23;7.13;;;2.58;;
37409;SDS011;23275;48.914;12.566;2023-05-18T04:09:52;8.82;;;3.08;;
37409;SDS011;23275;48.914;12.566;2023-05-18T04:12:20;6.18;;;3.20;;
37409;SDS011;23275;48.914;12.566;2023-05-18T04:14:45;4.50;;;2.58;;
37409;SDS011;23275;48.914;12.566;2023-05-18T04:17:17;7.50;;;2.88;;
37409;SDS011;23275;48.914;12.566;2023-05-18T04:19:46;10.18;;;3.20;;
37409;SDS011;23275;48.914;12.566;2023-05-18T04:22:13;8.82;;;3.28;;
37409;SDS011;23275;48.914;12.566;2023-05-18T04:24:40;6.05;;;2.67;;
37409;SDS011;23275;48.914;12.566;2023-05-18T04:27:06;12.13;;;3.53;;
37409;SDS011;23275;48.914;12.566;2023-05-18T04:29:33;8.07;;;3.13;;
37409;SDS011;23275;48.914;12.566;2023-05-18T04:31:58;8.38;;;4.45;;
37409;SDS011;23275;48.914;12.566;2023-05-18T04:34:25;8.20;;;3.45;;
37409;SDS011;23275;48.914;12.566;2023-05-18T04:36:54;7.50;;;3.47;;
37409;SDS011;23275;48.914;12.566;2023-05-18T04:39:22;12.60;;;3.70;;
37409;SDS011;23275;48.914;12.566;2023-05-18T04:41:48;6.35;;;3.40;;
37409;SDS011;23275;48.914;12.566;2023-05-18T04:44:15;9.48;;;3.30;;
37409;SDS011;23275;48.914;12.566;2023-05-18T04:46:42;10.60;;;3.78;;
37409;SDS011;23275;48.914;12.566;2023-05-18T04:49:11;12.13;;;3.70;;
37409;SDS011;23275;48.914;12.566;2023-05-18T04:51:37;10.13;;;3.67;;
37409;SDS011;23275;48.914;12.566;2023-05-18T04:54:03;10.68;;;4.10;;
37409;SDS011;23275;48.914;12.566;2023-05-18T04:56:30;7.07;;;3.03;;
37409;SDS011;23275;48.914;12.566;2023-05-18T04:58:55;13.13;;;3.97;;
37409;SDS011;23275;48.914;12.566;2023-05-18T05:01:23;5.65;;;2.80;;
37409;SDS011;23275;48.914;12.566;2023-05-18T05:03:49;8.23;;;3.13;;
37409;SDS011;23275;48.914;12.566;2023-05-18T05:06:14;8.45;;;3.47;;
37409;SDS011;23275;48.914;12.566;2023-05-18T05:08:40;10.20;;;3.08;;
37409;SDS011;23275;48.914;12.566;2023-05-18T05:11:06;7.47;;;2.85;;
37409;SDS011;23275;48.914;12.566;2023-05-18T05:13:31;8.68;;;2.90;;
37409;SDS011;23275;48.914;12.566;2023-05-18T05:15:59;10.88;;;2.65;;
37409;SDS011;23275;48.914;12.566;2023-05-18T05:18:25;7.28;;;1.98;;
37409;SDS011;23275;48.914;12.566;2023-05-18T05:20:50;6.00;;;1.85;;
37409;SDS011;23275;48.914;12.566;2023-05-18T05:23:17;5.30;;;1.88;;
37409;SDS011;23275;48.914;12.566;2023-05-18T05:25:43;6.78;;;1.90;;
37409;SDS011;23275;48.914;12.566;2023-05-18T05:28:08;12.02;;;2.60;;
37409;SDS011;23275;48.914;12.566;2023-05-18T05:30:34;8.00;;;1.95;;
37409;SDS011;23275;48.914;12.566;2023-05-18T05:32:59;5.82;;;1.63;;
37409;SDS011;23275;48.914;12.566;2023-05-18T05:35:25;7.97;;;2.28;;
37409;SDS011;23275;48.914;12.566;2023-05-18T05:37:50;7.63;;;1.85;;
37409;SDS011;23275;48.914;12.566;2023-05-18T05:40:16;9.90;;;1.90;;
37409;SDS011;23275;48.914;12.566;2023-05-18T05:42:41;8.40;;;2.03;;
37409;SDS011;23275;48.914;12.566;2023-05-18T05:45:08;11.95;;;2.22;;
37409;SDS011;23275;48.914;12.566;2023-05-18T05:47:34;11.23;;;2.78;;
37409;SDS011;23275;48.914;12.566;2023-05-18T05:49:59;8.77;;;1.60;;
37409;SDS011;23275;48.914;12.566;2023-05-18T05:52:25;8.13;;;1.70;;
37409;SDS011;23275;48.914;12.566;2023-05-18T05:54:52;4.88;;;1.90;;
37409;SDS011;23275;48.914;12.566;2023-05-18T05:57:18;5.90;;;2.00;;
37409;SDS011;23275;48.914;12.566;2023-05-18T05:59:44;9.32;;;2.20;;
37409;SDS011;23275;48.914;12.566;2023-05-18T06:02:09;10.13;;;2.15;;
37409;SDS011;23275;48.914;12.566;2023-05-18T06:04:36;7.55;;;1.90;;
37409;SDS011;23275;48.914;12.566;2023-05-18T06:07:02;8.68;;;1.75;;
37409;SDS011;23275;48.914;12.566;2023-05-18T06:09:27;9.00;;;2.25;;
37409;SDS011;23275;48.914;12.566;2023-05-18T06:11:53;9.63;;;1.98;;
37409;SDS011;23275;48.914;12.566;2023-05-18T06:14:19;8.93;;;2.05;;
37409;SDS011;23275;48.914;12.566;2023-05-18T06:16:45;7.00;;;1.90;;
37409;SDS011;23275;48.914;12.566;2023-05-18T06:19:11;6.80;;;1.60;;
37409;SDS011;23275;48.914;12.566;2023-05-18T06:21:37;10.23;;;1.60;;
37409;SDS011;23275;48.914;12.566;2023-05-18T06:24:03;10.25;;;1.50;;
37409;SDS011;23275;48.914;12.566;2023-05-18T06:26:29;10.73;;;1.90;;
37409;SDS011;23275;48.914;12.566;2023-05-18T06:28:55;6.63;;;1.60;;
37409;SDS011;23275;48.914;12.566;2023-05-18T06:31:20;6.13;;;1.60;;
37409;SDS011;23275;48.914;12.566;2023-05-18T06:33:46;7.55;;;1.60;;
37409;SDS011;23275;48.914;12.566;2023-05-18T06:36:12;9.32;;;1.83;;
37409;SDS011;23275;48.914;12.566;2023-05-18T06:38:37;7.22;;;1.77;;
37409;SDS011;23275;48.914;12.566;2023-05-18T06:41:03;6.80;;;1.75;;
37409;SDS011;23275;48.914;12.566;2023-05-18T06:43:28;6.28;;;1.70;;
37409;SDS011;23275;48.914;12.566;2023-05-18T06:45:54;8.20;;;1.70;;
37409;SDS011;23275;48.914;12.566;2023-05-18T06:48:22;8.70;;;1.70;;
37409;SDS011;23275;48.914;12.566;2023-05-18T06:50:50;7.57;;;1.63;;
37409;SDS011;23275;48.914;12.566;2023-05-18T06:53:15;6.50;;;1.73;;
37409;SDS011;23275;48.914;12.566;2023-05-18T06:55:41;5.40;;;1.50;;
37409;SDS011;23275;48.914;12.566;2023-05-18T06:58:06;8.10;;;1.80;;
37409;SDS011;23275;48.914;12.566;2023-05-18T07:00:32;10.23;;;1.42;;
37409;SDS011;23275;48.914;12.566;2023-05-18T07:02:57;9.32;;;2.28;;
37409;SDS011;23275;48.914;12.566;2023-05-18T07:05:23;9.40;;;1.83;;
37409;SDS011;23275;48.914;12.566;2023-05-18T07:07:48;9.80;;;2.10;;
37409;SDS011;23275;48.914;12.566;2023-05-18T07:10:14;8.85;;;2.42;;
37409;SDS011;23275;48.914;12.566;2023-05-18T07:12:40;11.10;;;2.15;;
37409;SDS011;23275;48.914;12.566;2023-05-18T07:15:06;6.30;;;1.75;;
37409;SDS011;23275;48.914;12.566;2023-05-18T07:17:32;6.85;;;1.33;;
37409;SDS011;23275;48.914;12.566;2023-05-18T07:19:58;6.35;;;1.45;;
37409;SDS011;23275;48.914;12.566;2023-05-18T07:22:23;8.60;;;1.75;;
37409;SDS011;23275;48.914;12.566;2023-05-18T07:24:49;6.90;;;1.88;;
37409;SDS011;23275;48.914;12.566;2023-05-18T07:27:14;7.97;;;1.60;;
37409;SDS011;23275;48.914;12.566;2023-05-18T07:29:40;8.57;;;2.03;;
37409;SDS011;23275;48.914;12.566;2023-05-18T07:32:07;6.90;;;1.77;;
37409;SDS011;23275;48.914;12.566;2023-05-18T07:34:32;9.77;;;2.00;;
37409;SDS011;23275;48.914;12.566;2023-05-18T07:36:58;8.82;;;2.17;;
37409;SDS011;23275;48.914;12.566;2023-05-18T07:39:23;6.75;;;1.90;;
37409;SDS011;23275;48.914;12.566;2023-05-18T07:41:53;7.25;;;1.88;;
37409;SDS011;23275;48.914;12.566;2023-05-18T07:44:19;8.75;;;1.70;;
37409;SDS011;23275;48.914;12.566;2023-05-18T07:46:45;8.05;;;1.73;;
37409;SDS011;23275;48.914;12.566;2023-05-18T07:49:10;7.47;;;1.48;;
37409;SDS011;23275;48.914;12.566;2023-05-18T07:51:36;6.35;;;1.60;;
37409;SDS011;23275;48.914;12.566;2023-05-18T07:54:01;8.43;;;2.53;;
37409;SDS011;23275;48.914;12.566;2023-05-18T07:56:27;9.68;;;1.98;;
37409;SDS011;23275;48.914;12.566;2023-05-18T07:58:53;8.45;;;1.80;;
37409;SDS011;23275;48.914;12.566;2023-05-18T08:01:18;6.18;;;1.35;;
37409;SDS011;23275;48.914;12.566;2023-05-18T08:03:45;11.20;;;2.60;;
37409;SDS011;23275;48.914;12.566;2023-05-18T08:06:11;6.40;;;1.48;;
37409;SDS011;23275;48.914;12.566;2023-05-18T08:08:37;5.50;;;1.33;;
37409;SDS011;23275;48.914;12.566;2023-05-18T08:11:03;6.45;;;1.40;;
37409;SDS011;23275;48.914;12.566;2023-05-18T08:13:29;10.93;;;1.92;;
37409;SDS011;23275;48.914;12.566;2023-05-18T08:15:54;7.20;;;1.55;;
37409;SDS011;23275;48.914;12.566;2023-05-18T08:18:20;9.40;;;1.60;;
37409;SDS011;23275;48.914;12.566;2023-05-18T08:20:46;5.65;;;1.70;;
37409;SDS011;23275;48.914;12.566;2023-05-18T08:23:13;9.13;;;1.75;;
37409;SDS011;23275;48.914;12.566;2023-05-18T08:25:39;8.20;;;1.38;;
37409;SDS011;23275;48.914;12.566;2023-05-18T08:28:05;6.38;;;1.50;;
37409;SDS011;23275;48.914;12.566;2023-05-18T08:30:30;8.90;;;1.77;;
37409;SDS011;23275;48.914;12.566;2023-05-18T08:32:56;9.57;;;1.77;;
37409;SDS011;23275;48.914;12.566;2023-05-18T08:35:22;7.75;;;1.50;;
37409;SDS011;23275;48.914;12.566;2023-05-18T08:37:48;9.00;;;2.40;;
37409;SDS011;23275;48.914;12.566;2023-05-18T08:40:14;9.77;;;2.10;;
37409;SDS011;23275;48.914;12.566;2023-05-18T08:42:47;7.85;;;1.60;;
37409;SDS011;23275;48.914;12.566;2023-05-18T08:46:19;8.30;;;1.73;;
37409;SDS011;23275;48.914;12.566;2023-05-18T08:48:19;11.95;;;1.88;;
37409;SDS011;23275;48.914;12.566;2023-05-18T08:50:47;6.05;;;1.70;;
37409;SDS011;23275;48.914;12.566;2023-05-18T08:53:13;8.48;;;1.83;;
37409;SDS011;23275;48.914;12.566;2023-05-18T08:55:42;8.35;;;1.85;;
37409;SDS011;23275;48.914;12.566;2023-05-18T08:58:09;8.02;;;1.92;;
37409;SDS011;23275;48.914;12.566;2023-05-18T09:00:38;9.75;;;2.38;;
37409;SDS011;23275;48.914;12.566;2023-05-18T09:03:03;7.13;;;1.90;;
37409;SDS011;23275;48.914;12.566;2023-05-18T09:05:30;5.85;;;1.52;;
37409;SDS011;23275;48.914;12.566;2023-05-18T09:07:55;10.68;;;2.05;;
37409;SDS011;23275;48.914;12.566;2023-05-18T09:10:22;5.75;;;1.55;;
37409;SDS011;23275;48.914;12.566;2023-05-18T09:12:48;10.25;;;2.08;;
37409;SDS011;23275;48.914;12.566;2023-05-18T09:15:15;5.72;;;1.63;;
37409;SDS011;23275;48.914;12.566;2023-05-18T09:17:41;5.50;;;1.70;;
37409;SDS011;23275;48.914;12.566;2023-05-18T09:20:08;8.70;;;2.10;;
37409;SDS011;23275;48.914;12.566;2023-05-18T09:22:34;9.38;;;2.03;;
37409;SDS011;23275;48.914;12.566;2023-05-18T09:25:03;7.30;;;1.70;;
37409;SDS011;23275;48.914;12.566;2023-05-18T09:27:32;8.57;;;2.20;;
37409;SDS011;23275;48.914;12.566;2023-05-18T09:29:57;8.85;;;2.17;;
37409;SDS011;23275;48.914;12.566;2023-05-18T09:32:23;7.43;;;1.80;;
37409;SDS011;23275;48.914;12.566;2023-05-18T09:34:49;6.05;;;1.58;;
37409;SDS011;23275;48.914;12.566;2023-05-18T09:37:19;7.75;;;2.28;;
37409;SDS011;23275;48.914;12.566;2023-05-18T09:39:56;7.95;;;1.90;;
37409;SDS011;23275;48.914;12.566;2023-05-18T09:42:39;8.15;;;1.58;;
37409;SDS011;23275;48.914;12.566;2023-05-18T09:45:19;8.63;;;2.20;;
37409;SDS011;23275;48.914;12.566;2023-05-18T09:47:50;5.38;;;1.65;;
37409;SDS011;23275;48.914;12.566;2023-05-18T09:50:20;6.30;;;1.77;;
37409;SDS011;23275;48.914;12.566;2023-05-18T09:52:47;7.95;;;1.60;;
37409;SDS011;23275;48.914;12.566;2023-05-18T09:55:16;6.75;;;1.77;;
37409;SDS011;23275;48.914;12.566;2023-05-18T09:57:47;11.45;;;1.73;;
37409;SDS011;23275;48.914;12.566;2023-05-18T10:00:13;6.35;;;1.65;;
37409;SDS011;23275;48.914;12.566;2023-05-18T10:02:42;6.78;;;1.70;;
37409;SDS011;23275;48.914;12.566;2023-05-18T10:05:19;6.40;;;1.73;;
37409;SDS011;23275;48.914;12.566;2023-05-18T10:07:46;6.32;;;1.77;;
37409;SDS011;23275;48.914;12.566;2023-05-18T10:10:12;5.60;;;1.45;;
37409;SDS011;23275;48.914;12.566;2023-05-18T10:12:42;5.70;;;1.63;;
37409;SDS011;23275;48.914;12.566;2023-05-18T10:15:08;5.78;;;1.40;;
37409;SDS011;23275;48.914;12.566;2023-05-18T10:17:37;6.55;;;1.58;;
37409;SDS011;23275;48.914;12.566;2023-05-18T10:20:05;5.70;;;1.58;;
37409;SDS011;23275;48.914;12.566;2023-05-18T10:22:34;12.48;;;2.17;;
37409;SDS011;23275;48.914;12.566;2023-05-18T10:25:00;8.70;;;1.60;;
37409;SDS011;23275;48.914;12.566;2023-05-18T10:27:29;8.38;;;1.77;;
37409;SDS011;23275;48.914;12.566;2023-05-18T10:29:59;9.02;;;1.88;;
37409;SDS011;23275;48.914;12.566;2023-05-18T10:32:28;7.88;;;2.17;;
37409;SDS011;23275;48.914;12.566;2023-05-18T10:34:54;7.40;;;2.65;;
37409;SDS011;23275;48.914;12.566;2023-05-18T10:37:21;7.25;;;2.00;;
37409;SDS011;23275;48.914;12.566;2023-05-18T10:39:47;7.22;;;1.73;;
37409;SDS011;23275;48.914;12.566;2023-05-18T10:42:18;7.30;;;1.60;;
37409;SDS011;23275;48.914;12.566;2023-05-18T10:44:46;8.73;;;1.63;;
37409;SDS011;23275;48.914;12.566;2023-05-18T10:47:13;5.07;;;1.52;;
37409;SDS011;23275;48.914;12.566;2023-05-18T10:49:39;7.50;;;1.65;;
37409;SDS011;23275;48.914;12.566;2023-05-18T10:52:07;9.45;;;1.73;;
37409;SDS011;23275;48.914;12.566;2023-05-18T10:54:35;7.60;;;2.25;;
37409;SDS011;23275;48.914;12.566;2023-05-18T10:57:01;5.25;;;1.50;;
37409;SDS011;23275;48.914;12.566;2023-05-18T10:59:27;7.43;;;1.95;;
37409;SDS011;23275;48.914;12.566;2023-05-18T11:01:52;5.97;;;1.40;;
37409;SDS011;23275;48.914;12.566;2023-05-18T11:04:23;5.30;;;1.70;;
37409;SDS011;23275;48.914;12.566;2023-05-18T11:06:55;6.50;;;1.67;;
37409;SDS011;23275;48.914;12.566;2023-05-18T11:09:23;9.67;;;1.77;;
37409;SDS011;23275;48.914;12.566;2023-05-18T11:11:53;7.57;;;1.45;;
37409;SDS011;23275;48.914;12.566;2023-05-18T11:14:25;7.70;;;2.00;;
37409;SDS011;23275;48.914;12.566;2023-05-18T11:16:52;5.05;;;1.63;;
37409;SDS011;23275;48.914;12.566;2023-05-18T11:19:18;3.25;;;1.30;;
37409;SDS011;23275;48.914;12.566;2023-05-18T11:21:48;7.63;;;1.95;;
37409;SDS011;23275;48.914;12.566;2023-05-18T11:24:16;9.60;;;1.70;;
37409;SDS011;23275;48.914;12.566;2023-05-18T11:26:45;6.65;;;2.30;;
37409;SDS011;23275;48.914;12.566;2023-05-18T11:29:20;6.28;;;1.40;;
37409;SDS011;23275;48.914;12.566;2023-05-18T11:31:58;4.95;;;1.50;;
37409;SDS011;23275;48.914;12.566;2023-05-18T11:37:12;6.70;;;1.60;;
37409;SDS011;23275;48.914;12.566;2023-05-18T11:39:39;7.65;;;1.67;;
37409;SDS011;23275;48.914;12.566;2023-05-18T11:42:09;8.27;;;2.00;;
37409;SDS011;23275;48.914;12.566;2023-05-18T11:44:38;6.20;;;1.80;;
37409;SDS011;23275;48.914;12.566;2023-05-18T11:47:07;8.20;;;1.52;;
37409;SDS011;23275;48.914;12.566;2023-05-18T11:49:40;7.22;;;1.58;;
37409;SDS011;23275;48.914;12.566;2023-05-18T11:54:42;9.60;;;1.88;;
37409;SDS011;23275;48.914;12.566;2023-05-18T11:57:11;7.88;;;1.52;;
37409;SDS011;23275;48.914;12.566;2023-05-18T11:59:42;5.43;;;1.52;;
37409;SDS011;23275;48.914;12.566;2023-05-18T12:02:09;5.97;;;2.00;;
37409;SDS011;23275;48.914;12.566;2023-05-18T12:04:52;5.43;;;1.35;;
37409;SDS011;23275;48.914;12.566;2023-05-18T12:07:20;4.93;;;1.50;;
37409;SDS011;23275;48.914;12.566;2023-05-18T12:09:47;10.57;;;1.63;;
37409;SDS011;23275;48.914;12.566;2023-05-18T12:12:14;5.65;;;1.48;;
37409;SDS011;23275;48.914;12.566;2023-05-18T12:14:45;7.50;;;1.70;;
37409;SDS011;23275;48.914;12.566;2023-05-18T12:17:16;5.78;;;1.17;;
37409;SDS011;23275;48.914;12.566;2023-05-18T12:19:43;6.90;;;1.85;;
37409;SDS011;23275;48.914;12.566;2023-05-18T12:22:09;6.75;;;1.55;;
37409;SDS011;23275;48.914;12.566;2023-05-18T12:24:36;8.30;;;1.90;;
37409;SDS011;23275;48.914;12.566;2023-05-18T12:27:04;9.57;;;2.22;;
37409;SDS011;23275;48.914;12.566;2023-05-18T12:29:31;7.38;;;1.48;;
37409;SDS011;23275;48.914;12.566;2023-05-18T12:31:57;7.28;;;1.65;;
37409;SDS011;23275;48.914;12.566;2023-05-18T12:34:28;10.60;;;1.90;;
37409;SDS011;23275;48.914;12.566;2023-05-18T12:36:54;6.78;;;1.73;;
37409;SDS011;23275;48.914;12.566;2023-05-18T12:39:20;9.13;;;1.92;;
37409;SDS011;23275;48.914;12.566;2023-05-18T12:41:46;7.75;;;1.80;;
37409;SDS011;23275;48.914;12.566;2023-05-18T12:44:12;8.00;;;1.98;;
37409;SDS011;23275;48.914;12.566;2023-05-18T12:46:39;6.03;;;1.83;;
37409;SDS011;23275;48.914;12.566;2023-05-18T12:49:05;5.07;;;1.60;;
37409;SDS011;23275;48.914;12.566;2023-05-18T12:51:32;6.68;;;1.50;;
37409;SDS011;23275;48.914;12.566;2023-05-18T12:53:59;6.13;;;1.98;;
37409;SDS011;23275;48.914;12.566;2023-05-18T12:59:26;7.68;;;1.45;;
37409;SDS011;23275;48.914;12.566;2023-05-18T13:01:55;7.63;;;1.90;;
37409;SDS011;23275;48.914;12.566;2023-05-18T13:04:22;12.20;;;1.92;;
37409;SDS011;23275;48.914;12.566;2023-05-18T13:07:00;6.10;;;1.48;;
37409;SDS011;23275;48.914;12.566;2023-05-18T13:09:25;6.45;;;1.58;;
37409;SDS011;23275;48.914;12.566;2023-05-18T13:11:51;6.18;;;1.50;;
37409;SDS011;23275;48.914;12.566;2023-05-18T13:14:20;11.30;;;1.92;;
37409;SDS011;23275;48.914;12.566;2023-05-18T13:16:49;7.65;;;1.83;;
37409;SDS011;23275;48.914;12.566;2023-05-18T13:19:16;8.65;;;1.70;;
37409;SDS011;23275;48.914;12.566;2023-05-18T13:21:44;6.30;;;1.55;;
37409;SDS011;23275;48.914;12.566;2023-05-18T13:24:10;7.10;;;1.63;;
37409;SDS011;23275;48.914;12.566;2023-05-18T13:26:36;4.72;;;1.33;;
37409;SDS011;23275;48.914;12.566;2023-05-18T13:29:01;8.05;;;1.65;;
37409;SDS011;23275;48.914;12.566;2023-05-18T13:31:27;6.28;;;1.73;;
37409;SDS011;23275;48.914;12.566;2023-05-18T13:33:55;4.95;;;1.65;;
37409;SDS011;23275;48.914;12.566;2023-05-18T13:36:21;7.35;;;1.58;;
37409;SDS011;23275;48.914;12.566;2023-05-18T13:38:47;5.28;;;1.30;;
37409;SDS011;23275;48.914;12.566;2023-05-18T13:41:13;4.15;;;1.45;;
37409;SDS011;23275;48.914;12.566;2023-05-18T13:43:39;8.23;;;2.20;;
37409;SDS011;23275;48.914;12.566;2023-05-18T13:46:06;7.13;;;1.83;;
37409;SDS011;23275;48.914;12.566;2023-05-18T13:48:32;6.25;;;1.52;;
37409;SDS011;23275;48.914;12.566;2023-05-18T13:50:57;6.28;;;1.40;;
37409;SDS011;23275;48.914;12.566;2023-05-18T13:53:24;4.50;;;1.80;;
37409;SDS011;23275;48.914;12.566;2023-05-18T13:55:50;6.53;;;1.83;;
37409;SDS011;23275;48.914;12.566;2023-05-18T13:58:15;7.35;;;1.75;;
37409;SDS011;23275;48.914;12.566;2023-05-18T14:00:42;7.25;;;1.70;;
37409;SDS011;23275;48.914;12.566;2023-05-18T14:03:07;6.32;;;1.65;;
37409;SDS011;23275;48.914;12.566;2023-05-18T14:05:34;6.63;;;1.65;;
37409;SDS011;23275;48.914;12.566;2023-05-18T14:08:00;8.68;;;2.00;;
37409;SDS011;23275;48.914;12.566;2023-05-18T14:10:26;7.88;;;1.77;;
37409;SDS011;23275;48.914;12.566;2023-05-18T14:12:51;5.97;;;1.83;;
37409;SDS011;23275;48.914;12.566;2023-05-18T14:15:17;6.28;;;1.70;;
37409;SDS011;23275;48.914;12.566;2023-05-18T14:17:42;5.95;;;1.42;;
37409;SDS011;23275;48.914;12.566;2023-05-18T14:20:08;6.32;;;1.75;;
37409;SDS011;23275;48.914;12.566;2023-05-18T14:22:34;5.13;;;1.63;;
37409;SDS011;23275;48.914;12.566;2023-05-18T14:25:00;8.93;;;2.03;;
37409;SDS011;23275;48.914;12.566;2023-05-18T14:27:26;8.00;;;1.75;;
37409;SDS011;23275;48.914;12.566;2023-05-18T14:29:52;6.20;;;1.63;;
37409;SDS011;23275;48.914;12.566;2023-05-18T14:32:18;9.43;;;2.00;;
37409;SDS011;23275;48.914;12.566;2023-05-18T14:34:47;6.70;;;1.60;;
37409;SDS011;23275;48.914;12.566;2023-05-18T14:37:15;7.78;;;2.13;;
37409;SDS011;23275;48.914;12.566;2023-05-18T14:39:41;7.00;;;1.88;;
37409;SDS011;23275;48.914;12.566;2023-05-18T14:42:07;7.75;;;1.75;;
37409;SDS011;23275;48.914;12.566;2023-05-18T14:44:33;9.88;;;2.00;;
37409;SDS011;23275;48.914;12.566;2023-05-18T14:46:58;5.10;;;1.48;;
37409;SDS011;23275;48.914;12.566;2023-05-18T14:49:24;5.03;;;1.20;;
37409;SDS011;23275;48.914;12.566;2023-05-18T14:51:49;6.68;;;1.83;;